sensor_id;sensor_type;location;lat;lon;timestamp;P1;P2;P0
53698;PMS7003;68408;53.952;27.612;2023-06-10T00:02:08;5;4.3;3.6
53698;PMS7003;68408;53.952;27.612;2023-06-10T00:07:22;5.7;3.7;2.9
53698;PMS7003;68408;53.952;27.612;2023-06-10T00:12:00;5.4;4.1;3.4
53698;PMS7003;68408;53.952;27.612;2023-06-10T00:16:46;4.2;3.5;2.9
53698;PMS7003;68408;53.952;27.612;2023-06-10T00:22:08;5;3.8;3.1
53698;PMS7003;68408;53.952;27.612;2023-06-10T00:27:22;3.9;2.9;2.3
53698;PMS7003;68408;53.952;27.612;2023-06-10T00:31:46;4.1;3.4;2.8
53698;PMS7003;68408;53.952;27.612;2023-06-10T00:37:12;3.3;2.9;2.4
53698;PMS7003;68408;53.952;27.612;2023-06-10T00:42:06;4.3;3.1;2.6
53698;PMS7003;68408;53.952;27.612;2023-06-10T00:47:20;4.5;3.6;3
53698;PMS7003;68408;53.952;27.612;2023-06-10T00:51:58;3.7;3.3;2.9
53698;PMS7003;68408;53.952;27.612;2023-06-10T00:56:59;4.1;3.7;3
53698;PMS7003;68408;53.952;27.612;2023-06-10T01:02:20;3.8;3.3;2.8
53698;PMS7003;68408;53.952;27.612;2023-06-10T01:07:22;3.4;3;2.6
53698;PMS7003;68408;53.952;27.612;2023-06-10T01:11:49;3.7;2.5;2.1
53698;PMS7003;68408;53.952;27.612;2023-06-10T01:16:48;3.7;2.7;2.3
53698;PMS7003;68408;53.952;27.612;2023-06-10T01:22:08;3.8;3.1;2.5
53698;PMS7003;68408;53.952;27.612;2023-06-10T01:27:20;3.1;2.5;2.1
53698;PMS7003;68408;53.952;27.612;2023-06-10T01:31:37;3.7;3.2;2.6
53698;PMS7003;68408;53.952;27.612;2023-06-10T01:37:02;3.4;2.9;2.4
53698;PMS7003;68408;53.952;27.612;2023-06-10T01:42:08;3.6;2.6;2.1
53698;PMS7003;68408;53.952;27.612;2023-06-10T01:47:22;3.2;2.2;1.8
53698;PMS7003;68408;53.952;27.612;2023-06-10T01:52:02;3.8;2.7;2.3
53698;PMS7003;68408;53.952;27.612;2023-06-10T01:56:48;3.1;2.6;2.1
53698;PMS7003;68408;53.952;27.612;2023-06-10T02:01:52;2.7;1.9;1.5
53698;PMS7003;68408;53.952;27.612;2023-06-10T02:06:36;3.2;2.4;2.1
53698;PMS7003;68408;53.952;27.612;2023-06-10T02:11:36;2.7;1.4;1.3
53698;PMS7003;68408;53.952;27.612;2023-06-10T02:16:50;3.1;2.3;2.1
53698;PMS7003;68408;53.952;27.612;2023-06-10T02:22:10;3.3;2.3;1.5
53698;PMS7003;68408;53.952;27.612;2023-06-10T02:26:36;2.1;1.7;1.5
53698;PMS7003;68408;53.952;27.612;2023-06-10T02:31:36;3.3;2.2;1.8
53698;PMS7003;68408;53.952;27.612;2023-06-10T02:36:48;3.3;1.9;1.7
53698;PMS7003;68408;53.952;27.612;2023-06-10T02:41:38;2.9;2.3;1.8
53698;PMS7003;68408;53.952;27.612;2023-06-10T02:47:14;2.3;1.6;1.4
53698;PMS7003;68408;53.952;27.612;2023-06-10T02:52:08;2.3;2;1.8
53698;PMS7003;68408;53.952;27.612;2023-06-10T02:56:48;3.1;2.2;1.8
53698;PMS7003;68408;53.952;27.612;2023-06-10T03:01:38;2;1.7;1.5
53698;PMS7003;68408;53.952;27.612;2023-06-10T03:06:58;2.7;2.1;1.8
53698;PMS7003;68408;53.952;27.612;2023-06-10T03:12:02;2;1.8;1.5
53698;PMS7003;68408;53.952;27.612;2023-06-10T03:16:36;2.3;1.9;1.6
53698;PMS7003;68408;53.952;27.612;2023-06-10T03:22:08;2.8;1.5;1.3
53698;PMS7003;68408;53.952;27.612;2023-06-10T03:27:00;2.1;1.7;1.3
53698;PMS7003;68408;53.952;27.612;2023-06-10T03:32:08;2.6;1.7;1.5
53698;PMS7003;68408;53.952;27.612;2023-06-10T03:36:48;2.9;1.9;1.7
53698;PMS7003;68408;53.952;27.612;2023-06-10T03:42:08;2;1.4;1.1
53698;PMS7003;68408;53.952;27.612;2023-06-10T03:47:00;1.9;1.4;1.2
53698;PMS7003;68408;53.952;27.612;2023-06-10T03:52:02;3.1;1.8;1.5
53698;PMS7003;68408;53.952;27.612;2023-06-10T03:57:16;2;1.8;1.5
53698;PMS7003;68408;53.952;27.612;2023-06-10T04:02:08;2;1.4;1
53698;PMS7003;68408;53.952;27.612;2023-06-10T04:06:58;1.9;1.6;1.2
53698;PMS7003;68408;53.952;27.612;2023-06-10T04:12:02;2.1;1.7;1.4
53698;PMS7003;68408;53.952;27.612;2023-06-10T04:17:02;1.8;1.5;1.3
53698;PMS7003;68408;53.952;27.612;2023-06-10T04:21:54;2.2;1.6;1.1
53698;PMS7003;68408;53.952;27.612;2023-06-10T04:26:48;2.3;1.8;1.5
53698;PMS7003;68408;53.952;27.612;2023-06-10T04:31:36;2.9;1.5;1.2
53698;PMS7003;68408;53.952;27.612;2023-06-10T04:36:36;2.5;1.8;1.7
53698;PMS7003;68408;53.952;27.612;2023-06-10T04:42:22;2.6;1.4;1.1
53698;PMS7003;68408;53.952;27.612;2023-06-10T04:47:22;2.5;1.9;1.5
53698;PMS7003;68408;53.952;27.612;2023-06-10T04:51:48;3.2;2.1;1.8
53698;PMS7003;68408;53.952;27.612;2023-06-10T04:57:02;2;1.7;1.5
53698;PMS7003;68408;53.952;27.612;2023-06-10T05:02:08;2.7;2.2;1.8
53698;PMS7003;68408;53.952;27.612;2023-06-10T05:06:36;3.1;2.4;2
53698;PMS7003;68408;53.952;27.612;2023-06-10T05:12:08;3.2;2.6;2.2
53698;PMS7003;68408;53.952;27.612;2023-06-10T05:16:36;2.7;1.7;1.4
53698;PMS7003;68408;53.952;27.612;2023-06-10T05:22:08;4;2.7;2.5
53698;PMS7003;68408;53.952;27.612;2023-06-10T05:27:00;2.4;1.9;1.4
53698;PMS7003;68408;53.952;27.612;2023-06-10T05:31:36;3.5;2.7;2.2
53698;PMS7003;68408;53.952;27.612;2023-06-10T05:36:48;3.5;2.7;2.2
53698;PMS7003;68408;53.952;27.612;2023-06-10T05:42:10;2.3;2.1;1.8
53698;PMS7003;68408;53.952;27.612;2023-06-10T05:46:56;3.8;3.2;2.7
53698;PMS7003;68408;53.952;27.612;2023-06-10T05:51:48;4.8;3.5;3
53698;PMS7003;68408;53.952;27.612;2023-06-10T05:56:50;4.1;3.4;2.8
53698;PMS7003;68408;53.952;27.612;2023-06-10T06:01:54;3.7;3;2.7
53698;PMS7003;68408;53.952;27.612;2023-06-10T06:06:38;4.7;3;2.6
53698;PMS7003;68408;53.952;27.612;2023-06-10T06:11:48;3.7;2.9;2.5
53698;PMS7003;68408;53.952;27.612;2023-06-10T06:16:52;3.7;2.3;2
53698;PMS7003;68408;53.952;27.612;2023-06-10T06:22:22;4.5;3.5;3.1
53698;PMS7003;68408;53.952;27.612;2023-06-10T06:27:24;4.1;3.4;3
53698;PMS7003;68408;53.952;27.612;2023-06-10T06:31:36;4.5;3.8;3.3
53698;PMS7003;68408;53.952;27.612;2023-06-10T06:36:52;4.3;3.4;2.8
53698;PMS7003;68408;53.952;27.612;2023-06-10T06:42:20;4.4;3.6;3
53698;PMS7003;68408;53.952;27.612;2023-06-10T06:47:08;4.9;4;3.5
53698;PMS7003;68408;53.952;27.612;2023-06-10T06:51:50;4.1;3.6;3
53698;PMS7003;68408;53.952;27.612;2023-06-10T06:57:08;4.5;3.9;3.2
53698;PMS7003;68408;53.952;27.612;2023-06-10T07:02:20;4.1;3.6;2.9
53698;PMS7003;68408;53.952;27.612;2023-06-10T07:06:42;5.3;3.6;3.1
53698;PMS7003;68408;53.952;27.612;2023-06-10T07:11:36;5.1;4.1;3.4
53698;PMS7003;68408;53.952;27.612;2023-06-10T07:16:52;4.8;4.4;3.8
53698;PMS7003;68408;53.952;27.612;2023-06-10T07:22:20;5.4;4.5;3.7
53698;PMS7003;68408;53.952;27.612;2023-06-10T07:27:08;5.2;3.9;3.2
53698;PMS7003;68408;53.952;27.612;2023-06-10T07:31:48;6.3;4.7;3.9
53698;PMS7003;68408;53.952;27.612;2023-06-10T07:36:52;4.6;3.6;2.9
53698;PMS7003;68408;53.952;27.612;2023-06-10T07:42:20;5.9;4.4;3.5
53698;PMS7003;68408;53.952;27.612;2023-06-10T07:47:08;4.7;4.5;3.8
53698;PMS7003;68408;53.952;27.612;2023-06-10T07:52:06;5.3;4;3.4
53698;PMS7003;68408;53.952;27.612;2023-06-10T07:56:36;5.1;4.6;3.8
53698;PMS7003;68408;53.952;27.612;2023-06-10T08:02:20;4.6;4.2;3.7
53698;PMS7003;68408;53.952;27.612;2023-06-10T08:07:04;4.5;3.4;2.9
53698;PMS7003;68408;53.952;27.612;2023-06-10T08:11:48;4.7;3.9;3.1
53698;PMS7003;68408;53.952;27.612;2023-06-10T08:16:36;4.9;3.9;3.3
53698;PMS7003;68408;53.952;27.612;2023-06-10T08:22:20;5.5;4.1;3.5
53698;PMS7003;68408;53.952;27.612;2023-06-10T08:27:08;5.4;4.4;3.7
53698;PMS7003;68408;53.952;27.612;2023-06-10T08:31:36;4.5;3.7;3.2
53698;PMS7003;68408;53.952;27.612;2023-06-10T08:36:36;5.3;4;3.4
53698;PMS7003;68408;53.952;27.612;2023-06-10T08:42:22;5.5;3.9;3.2
53698;PMS7003;68408;53.952;27.612;2023-06-10T08:47:10;4.1;3.5;2.9
53698;PMS7003;68408;53.952;27.612;2023-06-10T08:51:48;3.9;2.8;2.3
53698;PMS7003;68408;53.952;27.612;2023-06-10T08:56:52;4.9;3.7;3
53698;PMS7003;68408;53.952;27.612;2023-06-10T09:02:20;4;3.4;2.5
53698;PMS7003;68408;53.952;27.612;2023-06-10T09:07:08;3.7;3;2.4
53698;PMS7003;68408;53.952;27.612;2023-06-10T09:11:36;4;3.6;3
53698;PMS7003;68408;53.952;27.612;2023-06-10T09:16:37;5.2;4.2;3.5
53698;PMS7003;68408;53.952;27.612;2023-06-10T09:22:22;4.1;3.5;2.9
53698;PMS7003;68408;53.952;27.612;2023-06-10T09:27:08;5.1;4.3;3.6
53698;PMS7003;68408;53.952;27.612;2023-06-10T09:31:48;4.7;4.1;3.4
53698;PMS7003;68408;53.952;27.612;2023-06-10T09:36:48;4.8;4;3.3
53698;PMS7003;68408;53.952;27.612;2023-06-10T09:42:24;4.3;3.4;3
53698;PMS7003;68408;53.952;27.612;2023-06-10T09:47:12;4.5;3.4;2.9
53698;PMS7003;68408;53.952;27.612;2023-06-10T09:51:54;4.2;2.7;2.4
53698;PMS7003;68408;53.952;27.612;2023-06-10T09:56:54;4.3;3.6;3.1
53698;PMS7003;68408;53.952;27.612;2023-06-10T10:02:20;3.5;3.1;2.7
53698;PMS7003;68408;53.952;27.612;2023-06-10T10:07:08;3.9;3.3;2.8
53698;PMS7003;68408;53.952;27.612;2023-06-10T10:11:36;4.4;3.7;3.2
53698;PMS7003;68408;53.952;27.612;2023-06-10T10:16:36;4.6;3.6;3.1
53698;PMS7003;68408;53.952;27.612;2023-06-10T10:22:08;3.9;3;2.7
53698;PMS7003;68408;53.952;27.612;2023-06-10T10:26:52;4.5;3.6;3
53698;PMS7003;68408;53.952;27.612;2023-06-10T10:31:36;5.7;4.1;3.3
53698;PMS7003;68408;53.952;27.612;2023-06-10T10:37:10;4.5;3.5;3
53698;PMS7003;68408;53.952;27.612;2023-06-10T10:42:24;3.8;2.7;2.3
53698;PMS7003;68408;53.952;27.612;2023-06-10T10:47:25;3.7;3.3;2.9
53698;PMS7003;68408;53.952;27.612;2023-06-10T10:51:36;5.9;3.6;3.1
53698;PMS7003;68408;53.952;27.612;2023-06-10T10:57:22;5.4;4.1;3.4
53698;PMS7003;68408;53.952;27.612;2023-06-10T11:02:00;3.9;3.5;3
53698;PMS7003;68408;53.952;27.612;2023-06-10T11:07:24;5;3.6;2.9
53698;PMS7003;68408;53.952;27.612;2023-06-10T11:11:49;4.8;3.8;3.2
53698;PMS7003;68408;53.952;27.612;2023-06-10T11:17:24;3.8;3.5;3
53698;PMS7003;68408;53.952;27.612;2023-06-10T11:22:08;4.2;2.9;2.3
53698;PMS7003;68408;53.952;27.612;2023-06-10T11:27:24;4.5;3.8;3.3
53698;PMS7003;68408;53.952;27.612;2023-06-10T11:31:38;3.1;2.4;2
53698;PMS7003;68408;53.952;27.612;2023-06-10T11:37:24;4.4;3.3;2.7
53698;PMS7003;68408;53.952;27.612;2023-06-10T11:41:56;3.5;2.9;2.4
53698;PMS7003;68408;53.952;27.612;2023-06-10T11:47:24;4.5;3.4;3
53698;PMS7003;68408;53.952;27.612;2023-06-10T11:51:36;4.5;3.7;3.2
53698;PMS7003;68408;53.952;27.612;2023-06-10T11:57:24;3.8;2.9;2.4
53698;PMS7003;68408;53.952;27.612;2023-06-10T12:01:54;4.3;3.6;3.1
53698;PMS7003;68408;53.952;27.612;2023-06-10T12:07:22;4;3.4;3.1
53698;PMS7003;68408;53.952;27.612;2023-06-10T12:11:57;3.8;3.1;2.7
53698;PMS7003;68408;53.952;27.612;2023-06-10T12:17:23;4.1;2.9;2.6
53698;PMS7003;68408;53.952;27.612;2023-06-10T12:22:06;3.6;2.9;2.5
53698;PMS7003;68408;53.952;27.612;2023-06-10T12:27:22;3.4;2.8;2.4
53698;PMS7003;68408;53.952;27.612;2023-06-10T12:31:56;4.4;3.8;3.2
53698;PMS7003;68408;53.952;27.612;2023-06-10T12:37:20;3.2;2.2;1.9
53698;PMS7003;68408;53.952;27.612;2023-06-10T12:42:06;3.2;2.8;2.5
53698;PMS7003;68408;53.952;27.612;2023-06-10T12:47:28;4.6;3.3;2.7
53698;PMS7003;68408;53.952;27.612;2023-06-10T12:51:36;4.3;3.5;3
53698;PMS7003;68408;53.952;27.612;2023-06-10T12:57:22;3.7;3;2.6
53698;PMS7003;68408;53.952;27.612;2023-06-10T13:01:54;3.9;3;2.5
53698;PMS7003;68408;53.952;27.612;2023-06-10T13:07:22;3.7;2.9;2.3
53698;PMS7003;68408;53.952;27.612;2023-06-10T13:11:36;4.4;3.5;2.9
53698;PMS7003;68408;53.952;27.612;2023-06-10T13:17:20;4.2;3.2;2.4
53698;PMS7003;68408;53.952;27.612;2023-06-10T13:22:04;3.6;3;2.2
53698;PMS7003;68408;53.952;27.612;2023-06-10T13:27:08;3.4;2.7;2.2
53698;PMS7003;68408;53.952;27.612;2023-06-10T13:31:36;4.1;3;2.5
53698;PMS7003;68408;53.952;27.612;2023-06-10T13:37:24;3.4;2.6;2
53698;PMS7003;68408;53.952;27.612;2023-06-10T13:42:06;4.3;3.6;3.1
53698;PMS7003;68408;53.952;27.612;2023-06-10T13:47:24;4;3.4;2.9
53698;PMS7003;68408;53.952;27.612;2023-06-10T13:52:24;4.8;3.8;3.1
53698;PMS7003;68408;53.952;27.612;2023-06-10T13:57:24;3.1;2.9;2.7
53698;PMS7003;68408;53.952;27.612;2023-06-10T14:02:08;5.8;4.3;3.7
53698;PMS7003;68408;53.952;27.612;2023-06-10T14:07:24;4.2;3.6;3
53698;PMS7003;68408;53.952;27.612;2023-06-10T14:11:40;7.2;6.2;5
53698;PMS7003;68408;53.952;27.612;2023-06-10T14:17:20;4.1;3.5;3.1
53698;PMS7003;68408;53.952;27.612;2023-06-10T14:21:56;3.1;2.8;2.5
53698;PMS7003;68408;53.952;27.612;2023-06-10T14:27:24;4;3.4;2.7
53698;PMS7003;68408;53.952;27.612;2023-06-10T14:31:58;3.8;3.2;2.8
53698;PMS7003;68408;53.952;27.612;2023-06-10T14:37:22;3.3;3;2.6
53698;PMS7003;68408;53.952;27.612;2023-06-10T14:42:24;4.4;3.7;2.7
53698;PMS7003;68408;53.952;27.612;2023-06-10T14:47:24;4.2;3.6;2.9
53698;PMS7003;68408;53.952;27.612;2023-06-10T14:52:10;3.6;2.6;2.2
53698;PMS7003;68408;53.952;27.612;2023-06-10T14:57:24;3.2;2.7;2.4
53698;PMS7003;68408;53.952;27.612;2023-06-10T15:02:06;3.4;3;2.5
53698;PMS7003;68408;53.952;27.612;2023-06-10T15:07:22;3;2.6;2.4
53698;PMS7003;68408;53.952;27.612;2023-06-10T15:11:36;2.6;2.3;1.9
53698;PMS7003;68408;53.952;27.612;2023-06-10T15:17:22;3.5;1.9;1.5
53698;PMS7003;68408;53.952;27.612;2023-06-10T15:22:08;4.1;2.9;2.5
53698;PMS7003;68408;53.952;27.612;2023-06-10T15:27:10;3;2.4;2.2
53698;PMS7003;68408;53.952;27.612;2023-06-10T15:31:48;3.1;2.5;2.1
53698;PMS7003;68408;53.952;27.612;2023-06-10T15:37:22;3.5;2.6;2.1
53698;PMS7003;68408;53.952;27.612;2023-06-10T15:42:06;2.2;2;1.7
53698;PMS7003;68408;53.952;27.612;2023-06-10T15:47:22;3.2;2.7;2.1
53698;PMS7003;68408;53.952;27.612;2023-06-10T15:51:58;2;1.6;1.3
53698;PMS7003;68408;53.952;27.612;2023-06-10T15:57:20;2.2;1.4;1.3
53698;PMS7003;68408;53.952;27.612;2023-06-10T16:02:02;2;1.6;1.3
53698;PMS7003;68408;53.952;27.612;2023-06-10T16:07:22;3;2;1.7
53698;PMS7003;68408;53.952;27.612;2023-06-10T16:11:48;3.6;2.2;1.8
53698;PMS7003;68408;53.952;27.612;2023-06-10T16:17:22;2.1;1.4;1.1
53698;PMS7003;68408;53.952;27.612;2023-06-10T16:21:50;2.9;1.6;1.2
53698;PMS7003;68408;53.952;27.612;2023-06-10T16:26:56;1.9;1.4;1.2
53698;PMS7003;68408;53.952;27.612;2023-06-10T16:31:42;1.9;1.1;1
53698;PMS7003;68408;53.952;27.612;2023-06-10T16:37:18;2.5;1.7;1.4
53698;PMS7003;68408;53.952;27.612;2023-06-10T16:42:06;2.4;1.4;1.2
53698;PMS7003;68408;53.952;27.612;2023-06-10T16:47:24;1.8;1.2;1.1
53698;PMS7003;68408;53.952;27.612;2023-06-10T16:51:46;1.8;1.4;1.1
53698;PMS7003;68408;53.952;27.612;2023-06-10T16:57:24;2.1;1.7;1.4
53698;PMS7003;68408;53.952;27.612;2023-06-10T17:02:04;1.7;1.3;1.2
53698;PMS7003;68408;53.952;27.612;2023-06-10T17:07:08;1.4;1.1;0.8
53698;PMS7003;68408;53.952;27.612;2023-06-10T17:12:00;1.7;1.3;1
53698;PMS7003;68408;53.952;27.612;2023-06-10T17:17:22;2.3;1.4;1.3
53698;PMS7003;68408;53.952;27.612;2023-06-10T17:22:04;1.9;1.4;1.2
53698;PMS7003;68408;53.952;27.612;2023-06-10T17:27:22;1.8;1.2;0.9
53698;PMS7003;68408;53.952;27.612;2023-06-10T17:31:58;2.1;1.3;1.2
53698;PMS7003;68408;53.952;27.612;2023-06-10T17:37:22;1.9;1.2;1
53698;PMS7003;68408;53.952;27.612;2023-06-10T17:42:04;1.8;1;0.8
53698;PMS7003;68408;53.952;27.612;2023-06-10T17:47:22;1.4;1.3;1.1
53698;PMS7003;68408;53.952;27.612;2023-06-10T17:51:36;2.1;1.3;1
53698;PMS7003;68408;53.952;27.612;2023-06-10T17:57:24;2.3;1.8;1.4
53698;PMS7003;68408;53.952;27.612;2023-06-10T18:02:08;1.9;1.5;1.3
53698;PMS7003;68408;53.952;27.612;2023-06-10T18:07:24;1.8;1.5;1.3
53698;PMS7003;68408;53.952;27.612;2023-06-10T18:12:00;1.9;1.5;1.2
53698;PMS7003;68408;53.952;27.612;2023-06-10T18:17:22;2.8;1.6;1.3
53698;PMS7003;68408;53.952;27.612;2023-06-10T18:21:50;2.7;1.5;1.2
53698;PMS7003;68408;53.952;27.612;2023-06-10T18:27:22;2.2;1.5;1.3
53698;PMS7003;68408;53.952;27.612;2023-06-10T18:31:36;2.7;2;1.8
53698;PMS7003;68408;53.952;27.612;2023-06-10T18:37:22;2.4;1.8;1.6
53698;PMS7003;68408;53.952;27.612;2023-06-10T18:42:04;2.7;2.2;1.9
53698;PMS7003;68408;53.952;27.612;2023-06-10T18:47:18;2;1.5;1.2
53698;PMS7003;68408;53.952;27.612;2023-06-10T18:51:48;2;1.7;1.4
53698;PMS7003;68408;53.952;27.612;2023-06-10T18:57:24;2.6;1.7;1.4
53698;PMS7003;68408;53.952;27.612;2023-06-10T19:02:04;2.4;1.7;1.6
53698;PMS7003;68408;53.952;27.612;2023-06-10T19:07:22;3.1;1.6;1.3
53698;PMS7003;68408;53.952;27.612;2023-06-10T19:12:06;3;2.1;1.7
53698;PMS7003;68408;53.952;27.612;2023-06-10T19:17:22;2.6;2;1.7
53698;PMS7003;68408;53.952;27.612;2023-06-10T19:22:04;2.9;2.3;1.9
53698;PMS7003;68408;53.952;27.612;2023-06-10T19:27:14;2.8;1.9;1.7
53698;PMS7003;68408;53.952;27.612;2023-06-10T19:31:58;2.3;1.8;1.5
53698;PMS7003;68408;53.952;27.612;2023-06-10T19:37:22;2.3;1.8;1.5
53698;PMS7003;68408;53.952;27.612;2023-06-10T19:41:56;1.6;1.3;1.2
53698;PMS7003;68408;53.952;27.612;2023-06-10T19:46:38;2.1;1.6;1.3
53698;PMS7003;68408;53.952;27.612;2023-06-10T19:51:36;1.6;1.3;1.2
53698;PMS7003;68408;53.952;27.612;2023-06-10T19:57:24;2.4;1.6;1.4
53698;PMS7003;68408;53.952;27.612;2023-06-10T20:02:02;2.8;2;1.7
53698;PMS7003;68408;53.952;27.612;2023-06-10T20:06:38;2.7;2;1.5
53698;PMS7003;68408;53.952;27.612;2023-06-10T20:11:44;2.1;1.9;1.7
53698;PMS7003;68408;53.952;27.612;2023-06-10T20:17:18;2.3;1.3;1.1
53698;PMS7003;68408;53.952;27.612;2023-06-10T20:22:20;2;1.8;1.4
53698;PMS7003;68408;53.952;27.612;2023-06-10T20:27:04;2;1.4;1.1
53698;PMS7003;68408;53.952;27.612;2023-06-10T20:31:36;1.9;1.4;1.3
53698;PMS7003;68408;53.952;27.612;2023-06-10T20:37:22;2.2;1.8;1.5
53698;PMS7003;68408;53.952;27.612;2023-06-10T20:42:06;1.9;1.4;1.2
53698;PMS7003;68408;53.952;27.612;2023-06-10T20:47:16;1.8;1.3;1.1
53698;PMS7003;68408;53.952;27.612;2023-06-10T20:51:36;1.5;1.3;1.1
53698;PMS7003;68408;53.952;27.612;2023-06-10T20:57:22;1.7;1.4;1.1
53698;PMS7003;68408;53.952;27.612;2023-06-10T21:02:06;1.7;1.3;1
53698;PMS7003;68408;53.952;27.612;2023-06-10T21:07:02;1.5;1.2;1.1
53698;PMS7003;68408;53.952;27.612;2023-06-10T21:11:36;1.7;1.3;1.1
53698;PMS7003;68408;53.952;27.612;2023-06-10T21:17:20;1.6;1.2;1
53698;PMS7003;68408;53.952;27.612;2023-06-10T21:22:22;1.8;1.1;0.9
53698;PMS7003;68408;53.952;27.612;2023-06-10T21:27:16;1.3;0.9;0.8
53698;PMS7003;68408;53.952;27.612;2023-06-10T21:31:48;1.8;0.8;0.7
53698;PMS7003;68408;53.952;27.612;2023-06-10T21:37:20;0.8;0.8;0.6
53698;PMS7003;68408;53.952;27.612;2023-06-10T21:42:04;1.5;1.4;1.1
53698;PMS7003;68408;53.952;27.612;2023-06-10T21:47:14;2.2;1.3;1
53698;PMS7003;68408;53.952;27.612;2023-06-10T21:51:46;2;1.1;1
53698;PMS7003;68408;53.952;27.612;2023-06-10T21:57:10;1.7;1.3;1
53698;PMS7003;68408;53.952;27.612;2023-06-10T22:02:04;1.3;0.8;0.6
53698;PMS7003;68408;53.952;27.612;2023-06-10T22:07:14;1.4;0.9;0.8
53698;PMS7003;68408;53.952;27.612;2023-06-10T22:11:46;1.1;0.9;0.7
53698;PMS7003;68408;53.952;27.612;2023-06-10T22:17:20;2.2;0.8;0.8
53698;PMS7003;68408;53.952;27.612;2023-06-10T22:22:02;2.1;1.4;1.2
53698;PMS7003;68408;53.952;27.612;2023-06-10T22:27:14;1.2;0.9;0.7
53698;PMS7003;68408;53.952;27.612;2023-06-10T22:31:46;1.1;0.9;0.7
53698;PMS7003;68408;53.952;27.612;2023-06-10T22:37:20;1.1;0.8;0.8
53698;PMS7003;68408;53.952;27.612;2023-06-10T22:42:04;1;0.8;0.5
53698;PMS7003;68408;53.952;27.612;2023-06-10T22:47:14;1.7;1.1;0.8
53698;PMS7003;68408;53.952;27.612;2023-06-10T22:51:36;2;0.8;0.6
53698;PMS7003;68408;53.952;27.612;2023-06-10T22:57:20;1.4;0.7;0.6
53698;PMS7003;68408;53.952;27.612;2023-06-10T23:01:42;1.5;1.1;0.9
53698;PMS7003;68408;53.952;27.612;2023-06-10T23:07:14;1.1;0.9;0.7
53698;PMS7003;68408;53.952;27.612;2023-06-10T23:11:36;1.6;1.1;0.9
53698;PMS7003;68408;53.952;27.612;2023-06-10T23:17:20;2.2;1.4;1.2
53698;PMS7003;68408;53.952;27.612;2023-06-10T23:22:00;1.2;1;0.8
53698;PMS7003;68408;53.952;27.612;2023-06-10T23:26:52;1.9;1.1;0.9
53698;PMS7003;68408;53.952;27.612;2023-06-10T23:31:36;1.7;0.9;0.8
53698;PMS7003;68408;53.952;27.612;2023-06-10T23:37:18;1.4;1;0.9
53698;PMS7003;68408;53.952;27.612;2023-06-10T23:41:38;2.1;1;0.8
53698;PMS7003;68408;53.952;27.612;2023-06-10T23:47:12;1.5;0.8;0.7
53698;PMS7003;68408;53.952;27.612;2023-06-10T23:51:36;1.6;1;0.8
53698;PMS7003;68408;53.952;27.612;2023-06-10T23:57:02;1.7;1.2;1
